Impacts METAR Board
IDs:

KCLT - Charlotte/Douglas In, NC, US

Updated at: 0800 UTC 21 Oct 2018
Potential Impact None Slight Moderate High
Time 20/20Z 20/21Z 20/22Z 20/23Z 21/00Z 21/01Z 21/02Z 21/03Z 21/04Z 21/05Z 21/06Z 21/07Z 21/08Z
Temp70 71 69 66 66 63 59 57 55 53 54 53 53
Dewpt64 63 63 61 56 49 47 44 44 43 42 37 36
Altim29.84 29.83 29.82 29.83 29.85 29.86 29.88 29.90 29.92 29.93 29.95 29.97 30.00
VIS10 10 10 10 10 10 10 10 10 10 10 10 10
CIG120 30 -- -- 37 37 -- -- -- -- -- -- --
CoverBKNBKNSCTSCTBKNBKNSCTSCTFEWFEWCLRCLRCLR
FltCatVFRMVFRVFRVFRVFRVFRVFRVFRVFRVFRVFRVFRVFR
WX--------------------------
WDir26025002402903003103000240300350340
WSpd6 5 0 5 8 5 7 5 0 5 7 8 10
WGst-- -- -- -- -- -- -- -- -- -- -- -- 16
Raw hourly METARs
KCLT 201952Z 26006KT 10SM FEW010 BKN120 BKN140 21/18 A2984 RMK AO2 SLP099 T02110178
KCLT 202052Z 25005KT 10SM SCT020 BKN030 BKN150 22/17 A2983 RMK AO2 SLP095 60000 T02170172 56021
KCLT 202152Z 00000KT 10SM FEW038 SCT250 21/17 A2982 RMK AO2 SLP092 T02060172
KCLT 202252Z 24005KT 10SM FEW038 SCT250 19/16 A2983 RMK AO2 SLP095 T01890161
KCLT 202352Z 29008KT 10SM FEW026 BKN037 BKN250 19/13 A2985 RMK AO2 SLP104 60000 T01890133 10217 20178 53007
KCLT 210052Z 30005KT 10SM BKN037 BKN250 17/09 A2986 RMK AO2 SLP106 T01720094
KCLT 210152Z 31007KT 10SM FEW045 SCT250 15/08 A2988 RMK AO2 SLP113 T01500083
KCLT 210252Z 30005KT 10SM SCT250 14/07 A2990 RMK AO2 SLP122 T01390067 53018
KCLT 210352Z 00000KT 10SM FEW250 13/07 A2992 RMK AO2 SLP127 T01280067
KCLT 210452Z 24005KT 10SM FEW250 12/06 A2993 RMK AO2 SLP132 T01170061 402170117
KCLT 210552Z 30007KT 10SM CLR 12/06 A2995 RMK AO2 SLP138 T01220056 10189 20111 53015
KCLT 210652Z 35008KT 10SM CLR 12/03 A2997 RMK AO2 SLP145 T01170028
KCLT 210752Z 34010G16KT 10SM CLR 12/02 A3000 RMK AO2 SLP155 T01170022



Page loaded:  08:10 UTC  |   01:10 AM Pacific  |   02:10 AM Mountain  |   03:10 AM Central  |   04:10 AM Eastern

 

ADVISORIES

FORECASTS

FORECASTS

OBSERVATIONS

USER TOOLS

ABOUT US